Time;durP1;ratioP1;P1;durP2;ratioP2;P2;SDS_P1;SDS_P2;PMS_P1;PMS_P2;Temp;Humidity;BMP_temperature;BMP_pressure;BME280_temperature;BME280_humidity;BME280_pressure;Samples;Min_cycle;Max_cycle;Signal;HPM_P1;HPM_P2
2022/12/19 00:01:28;;;;;;;54.17;19.92;;;;;;;;;;5023414;28;20041;-81
2022/12/19 00:03:55;;;;;;;43.08;18.00;;;;;;;;;;5020447;28;20014;-80
2022/12/19 00:06:21;;;;;;;47.78;19.15;;;;;;;;;;5021545;28;20034;-81
2022/12/19 00:08:48;;;;;;;42.03;18.60;;;;;;;;;;5024178;28;20228;-79
2022/12/19 00:11:15;;;;;;;46.75;18.40;;;;;;;;;;5019686;28;20136;-80
2022/12/19 00:13:41;;;;;;;48.85;19.17;;;;;;;;;;5021385;28;20041;-80
2022/12/19 00:16:10;;;;;;;54.78;21.95;;;;;;;;;;5036306;28;20350;-79
2022/12/19 00:18:36;;;;;;;49.70;20.88;;;;;;;;;;5034854;28;20102;-80
2022/12/19 00:21:03;;;;;;;49.30;20.35;;;;;;;;;;5017264;28;20371;-80
2022/12/19 00:23:31;;;;;;;51.88;22.00;;;;;;;;;;5026277;28;20037;-78
2022/12/19 00:26:06;;;;;;;58.78;23.85;;;;;;;;;;5035603;28;20044;-80
2022/12/19 00:28:32;;;;;;;57.30;23.13;;;;;;;;;;5020351;28;20025;-80
2022/12/19 00:31:01;;;;;;;61.30;23.48;;;;;;;;;;5002589;28;20041;-80
2022/12/19 00:33:28;;;;;;;48.90;20.67;;;;;;;;;;5035304;28;20618;-80
2022/12/19 00:36:01;;;;;;;54.35;22.38;;;;;;;;;;5020214;28;20034;-81
2022/12/19 00:38:28;;;;;;;56.67;23.55;;;;;;;;;;5019409;28;20033;-80
2022/12/19 00:40:54;;;;;;;51.65;22.13;;;;;;;;;;5021052;28;20450;-81
2022/12/19 00:43:20;;;;;;;45.10;20.02;;;;;;;;;;5023747;28;20034;-79
2022/12/19 00:45:46;;;;;;;52.13;21.02;;;;;;;;;;5023821;28;20028;-80
2022/12/19 00:48:15;;;;;;;49.75;21.00;;;;;;;;;;5023069;28;20046;-80
2022/12/19 00:50:41;;;;;;;53.22;22.48;;;;;;;;;;5026455;28;20025;-80
2022/12/19 00:53:07;;;;;;;52.47;20.10;;;;;;;;;;5029129;28;20018;-79
2022/12/19 00:55:33;;;;;;;52.65;18.98;;;;;;;;;;5035101;28;20014;-79
2022/12/19 00:57:59;;;;;;;46.88;18.58;;;;;;;;;;5035049;28;20042;-80
2022/12/19 01:00:25;;;;;;;47.72;19.10;;;;;;;;;;5034832;28;20045;-79
2022/12/19 01:02:54;;;;;;;48.00;19.20;;;;;;;;;;5031475;28;20030;-79
2022/12/19 01:05:20;;;;;;;46.65;19.77;;;;;;;;;;5027022;28;20578;-81
2022/12/19 01:07:46;;;;;;;50.67;20.90;;;;;;;;;;5025752;28;20029;-80
2022/12/19 01:10:13;;;;;;;49.42;20.10;;;;;;;;;;5050463;28;20026;-79
2022/12/19 01:12:44;;;;;;;49.88;19.88;;;;;;;;;;5032703;28;20097;-80
2022/12/19 01:15:11;;;;;;;50.78;19.85;;;;;;;;;;5027590;28;20026;-79
2022/12/19 01:17:37;;;;;;;50.22;19.85;;;;;;;;;;5026924;28;20045;-81
2022/12/19 01:20:03;;;;;;;48.40;20.58;;;;;;;;;;5020415;28;20036;-79
2022/12/19 01:22:30;;;;;;;47.03;19.30;;;;;;;;;;5020863;28;20038;-80
2022/12/19 01:24:56;;;;;;;43.53;18.50;;;;;;;;;;5019854;28;20108;-80
2022/12/19 01:27:22;;;;;;;46.47;18.55;;;;;;;;;;5035635;28;20022;-81
2022/12/19 01:29:48;;;;;;;49.65;20.05;;;;;;;;;;5023621;28;20030;-80
2022/12/19 01:32:14;;;;;;;49.28;18.63;;;;;;;;;;5023939;28;20084;-81
2022/12/19 01:34:40;;;;;;;42.90;17.88;;;;;;;;;;5021566;28;20057;-80
2022/12/19 01:37:06;;;;;;;47.65;18.83;;;;;;;;;;5023948;28;20033;-80
2022/12/19 01:39:32;;;;;;;38.80;18.25;;;;;;;;;;5037301;28;20032;-82
2022/12/19 01:41:58;;;;;;;42.22;17.63;;;;;;;;;;5019287;28;20042;-82
2022/12/19 01:44:25;;;;;;;42.25;18.60;;;;;;;;;;5032192;28;20037;-81
2022/12/19 01:46:53;;;;;;;43.83;17.55;;;;;;;;;;5017017;28;20030;-82
2022/12/19 01:49:25;;;;;;;38.20;17.17;;;;;;;;;;5017148;28;20733;-81
2022/12/19 01:51:53;;;;;;;45.75;19.10;;;;;;;;;;5023178;28;20061;-79
2022/12/19 01:54:20;;;;;;;44.50;19.75;;;;;;;;;;5023209;28;20041;-81
2022/12/19 01:56:49;;;;;;;38.58;17.20;;;;;;;;;;5026863;28;20034;-79
2022/12/19 01:59:27;;;;;;;44.42;19.17;;;;;;;;;;5024049;28;20037;-80
2022/12/19 02:01:56;;;;;;;43.55;19.15;;;;;;;;;;5032167;28;20121;-79
2022/12/19 02:04:24;;;;;;;43.72;18.58;;;;;;;;;;5027988;28;20041;-81
2022/12/19 02:06:51;;;;;;;43.03;19.30;;;;;;;;;;5022642;28;20034;-81
2022/12/19 02:09:17;;;;;;;49.95;21.58;;;;;;;;;;5022259;28;20049;-81
2022/12/19 02:11:47;;;;;;;52.95;24.48;;;;;;;;;;5021803;28;20064;-81
2022/12/19 02:14:13;;;;;;;48.97;23.63;;;;;;;;;;5022286;28;20033;-80
2022/12/19 02:16:39;;;;;;;52.92;24.25;;;;;;;;;;5021666;28;20040;-80
2022/12/19 02:19:15;;;;;;;54.75;26.98;;;;;;;;;;5037100;28;20033;-81
2022/12/19 02:21:46;;;;;;;53.33;24.00;;;;;;;;;;5021633;28;20026;-80
2022/12/19 02:24:24;;;;;;;49.47;21.80;;;;;;;;;;5021172;28;20018;-80
2022/12/19 02:26:59;;;;;;;51.20;22.63;;;;;;;;;;5021302;28;20041;-80
2022/12/19 02:29:28;;;;;;;43.85;21.02;;;;;;;;;;5021824;28;20026;-80
2022/12/19 02:32:00;;;;;;;45.42;20.27;;;;;;;;;;5020955;28;20030;-80
2022/12/19 02:34:36;;;;;;;49.78;22.45;;;;;;;;;;5020516;28;20068;-80
2022/12/19 02:37:10;;;;;;;54.78;22.20;;;;;;;;;;5021098;28;20033;-80
2022/12/19 02:39:55;;;;;;;46.78;20.30;;;;;;;;;;5020939;28;20049;-81
2022/12/19 02:42:31;;;;;;;48.97;21.05;;;;;;;;;;5022180;28;20076;-81
2022/12/19 02:44:58;;;;;;;44.72;20.35;;;;;;;;;;5020937;28;20061;-80
2022/12/19 02:47:25;;;;;;;50.55;20.60;;;;;;;;;;5021174;28;20022;-81
2022/12/19 02:49:51;;;;;;;58.25;22.85;;;;;;;;;;5021298;28;20049;-81
2022/12/19 02:52:20;;;;;;;51.10;22.17;;;;;;;;;;5021704;28;20030;-81
2022/12/19 02:54:47;;;;;;;54.92;23.25;;;;;;;;;;5022742;28;20057;-81
2022/12/19 02:57:22;;;;;;;54.20;22.88;;;;;;;;;;5022492;28;20110;-82
2022/12/19 03:00:05;;;;;;;59.63;24.33;;;;;;;;;;5022783;28;20060;-82
2022/12/19 03:02:51;;;;;;;49.88;23.42;;;;;;;;;;5026815;28;20037;-80
2022/12/19 03:05:29;;;;;;;49.50;23.35;;;;;;;;;;5026978;28;20053;-81
2022/12/19 03:07:58;;;;;;;50.45;22.00;;;;;;;;;;5026196;28;20025;-81
2022/12/19 03:10:27;;;;;;;55.15;21.63;;;;;;;;;;5026904;28;20030;-79
2022/12/19 03:12:57;;;;;;;52.60;21.50;;;;;;;;;;5021860;28;20052;-81
2022/12/19 03:15:24;;;;;;;46.17;19.98;;;;;;;;;;5021927;28;20040;-81
2022/12/19 03:17:50;;;;;;;50.47;21.35;;;;;;;;;;5019239;28;20014;-80
2022/12/19 03:20:24;;;;;;;53.47;22.35;;;;;;;;;;5018543;28;20476;-80
2022/12/19 03:22:51;;;;;;;44.72;20.88;;;;;;;;;;5018800;28;20026;-80
2022/12/19 03:25:18;;;;;;;42.58;19.90;;;;;;;;;;5017360;28;20030;-81
2022/12/19 03:27:44;;;;;;;58.22;23.15;;;;;;;;;;5018406;28;20029;-81
2022/12/19 03:30:12;;;;;;;51.08;22.20;;;;;;;;;;5017765;28;20034;-81
2022/12/19 03:32:40;;;;;;;55.00;23.65;;;;;;;;;;5019938;28;20057;-81
2022/12/19 03:35:10;;;;;;;45.17;20.45;;;;;;;;;;5017200;28;20030;-80
2022/12/19 03:37:37;;;;;;;47.13;21.33;;;;;;;;;;5024072;28;20034;-81
2022/12/19 03:40:11;;;;;;;54.95;22.65;;;;;;;;;;5020864;28;20078;-81
2022/12/19 03:45:40;;;;;;;50.33;22.70;;;;;;;;;;5026137;28;20452;-81
2022/12/19 03:48:26;;;;;;;48.45;21.27;;;;;;;;;;5022672;28;20029;-81
2022/12/19 03:50:57;;;;;;;53.90;22.33;;;;;;;;;;4974576;28;20042;-81
2022/12/19 03:53:36;;;;;;;49.07;22.73;;;;;;;;;;5037098;28;20010;-80
2022/12/19 03:56:15;;;;;;;47.65;19.42;;;;;;;;;;5036650;28;20269;-78
2022/12/19 03:58:45;;;;;;;51.05;22.55;;;;;;;;;;5021637;28;20018;-79
2022/12/19 04:01:11;;;;;;;50.03;21.23;;;;;;;;;;5034805;28;20093;-79
2022/12/19 04:03:37;;;;;;;47.15;20.70;;;;;;;;;;5018017;28;20022;-78
2022/12/19 04:06:05;;;;;;;45.08;20.73;;;;;;;;;;5016502;28;20037;-78
2022/12/19 04:08:35;;;;;;;49.58;21.95;;;;;;;;;;5029538;28;20022;-77
2022/12/19 04:11:04;;;;;;;48.67;21.65;;;;;;;;;;5013387;28;20128;-79
2022/12/19 04:13:35;;;;;;;46.80;21.15;;;;;;;;;;5026922;28;20030;-79
2022/12/19 04:16:20;;;;;;;52.42;21.00;;;;;;;;;;5028756;28;20022;-78
2022/12/19 04:18:52;;;;;;;52.78;21.95;;;;;;;;;;5017564;28;20091;-78
2022/12/19 04:21:18;;;;;;;;;;;;;;;;;;5036961;28;20077;-79
2022/12/19 04:23:47;;;;;;;50.70;20.25;;;;;;;;;;5036431;28;19916;-78
2022/12/19 04:26:13;;;;;;;42.97;20.48;;;;;;;;;;5036098;28;20049;-79
2022/12/19 04:28:50;;;;;;;50.15;21.52;;;;;;;;;;5035523;28;20026;-79
2022/12/19 04:31:17;;;;;;;46.13;19.98;;;;;;;;;;5045018;28;20022;-78
2022/12/19 04:33:43;;;;;;;59.20;22.40;;;;;;;;;;5050663;28;20010;-78
2022/12/19 04:36:10;;;;;;;51.00;21.98;;;;;;;;;;5023258;28;20022;-80
2022/12/19 04:38:49;;;;;;;54.33;20.65;;;;;;;;;;5002358;28;20034;-80
2022/12/19 04:41:15;;;;;;;51.28;20.50;;;;;;;;;;5002371;28;20037;-80
2022/12/19 04:43:41;;;;;;;42.78;19.30;;;;;;;;;;4999896;28;20018;-80
2022/12/19 04:46:08;;;;;;;46.88;20.95;;;;;;;;;;5030443;28;20065;-78
2022/12/19 04:48:35;;;;;;;49.95;20.98;;;;;;;;;;5013652;28;20030;-79
2022/12/19 04:51:01;;;;;;;54.47;22.05;;;;;;;;;;5017426;28;20125;-79
2022/12/19 04:53:27;;;;;;;53.78;22.00;;;;;;;;;;5034072;28;20041;-79
2022/12/19 04:56:01;;;;;;;53.60;21.30;;;;;;;;;;5046081;28;20092;-79
2022/12/19 04:58:27;;;;;;;63.75;23.77;;;;;;;;;;5018594;28;20052;-80
2022/12/19 05:00:53;;;;;;;50.45;21.35;;;;;;;;;;5018593;28;20043;-79
2022/12/19 05:03:20;;;;;;;57.22;22.58;;;;;;;;;;5001821;28;20018;-79
2022/12/19 05:05:46;;;;;;;50.28;21.30;;;;;;;;;;5026251;28;20045;-80
2022/12/19 05:08:12;;;;;;;50.65;21.02;;;;;;;;;;5010986;28;20171;-81
2022/12/19 05:10:38;;;;;;;49.95;20.48;;;;;;;;;;5002931;28;20030;-83
2022/12/19 05:13:04;;;;;;;46.35;19.80;;;;;;;;;;5018483;28;20029;-81
2022/12/19 05:15:30;;;;;;;45.00;19.83;;;;;;;;;;5019565;28;20284;-80
2022/12/19 05:17:57;;;;;;;42.38;18.95;;;;;;;;;;5020134;28;20038;-80
2022/12/19 05:20:23;;;;;;;42.60;18.67;;;;;;;;;;5017243;28;20476;-78
2022/12/19 05:22:49;;;;;;;46.28;19.58;;;;;;;;;;5015878;28;20034;-81
2022/12/19 05:25:15;;;;;;;52.03;21.10;;;;;;;;;;5032126;28;20022;-79
2022/12/19 05:27:41;;;;;;;49.70;20.13;;;;;;;;;;5024894;28;20107;-80
2022/12/19 05:30:08;;;;;;;49.95;20.60;;;;;;;;;;5017450;28;20456;-81
2022/12/19 05:32:34;;;;;;;46.63;18.48;;;;;;;;;;5014911;28;20159;-80
2022/12/19 05:35:00;;;;;;;41.28;18.10;;;;;;;;;;5033479;28;20453;-81
2022/12/19 05:37:26;;;;;;;43.80;18.40;;;;;;;;;;5034315;28;20120;-80
2022/12/19 05:39:52;;;;;;;44.55;17.58;;;;;;;;;;5033198;28;20061;-81
2022/12/19 05:42:18;;;;;;;42.08;19.00;;;;;;;;;;5020851;28;20034;-81
2022/12/19 05:44:44;;;;;;;41.00;17.13;;;;;;;;;;5018267;28;20018;-79
2022/12/19 05:47:11;;;;;;;48.15;17.90;;;;;;;;;;5017510;28;20535;-81
2022/12/19 05:49:38;;;;;;;39.22;17.20;;;;;;;;;;5033197;28;20030;-81
2022/12/19 05:52:04;;;;;;;40.70;17.42;;;;;;;;;;5017130;28;20026;-81
2022/12/19 05:54:30;;;;;;;40.08;17.38;;;;;;;;;;5012845;28;20036;-81
2022/12/19 05:56:57;;;;;;;48.03;20.65;;;;;;;;;;5030827;28;20460;-81
2022/12/19 05:59:23;;;;;;;49.85;20.75;;;;;;;;;;5018029;28;20034;-82
2022/12/19 06:01:49;;;;;;;47.38;20.40;;;;;;;;;;5016956;28;20039;-81
2022/12/19 06:04:15;;;;;;;48.35;20.90;;;;;;;;;;5018451;28;20037;-84
2022/12/19 06:06:41;;;;;;;44.47;19.08;;;;;;;;;;5021434;28;20026;-82
2022/12/19 06:09:07;;;;;;;45.80;19.10;;;;;;;;;;5022218;28;20036;-82
2022/12/19 06:11:33;;;;;;;41.00;18.02;;;;;;;;;;5025104;28;20018;-82
2022/12/19 06:13:59;;;;;;;42.90;18.23;;;;;;;;;;5032079;28;20018;-82
2022/12/19 06:16:31;;;;;;;39.40;16.85;;;;;;;;;;5040381;28;20030;-83
2022/12/19 06:19:03;;;;;;;37.60;16.25;;;;;;;;;;5022120;28;20032;-83
2022/12/19 06:21:29;;;;;;;43.10;18.50;;;;;;;;;;5023838;28;20045;-82
2022/12/19 06:23:56;;;;;;;41.25;16.77;;;;;;;;;;5018674;28;20081;-82
2022/12/19 06:26:22;;;;;;;40.42;18.00;;;;;;;;;;5035166;28;20006;-82
2022/12/19 06:28:49;;;;;;;42.97;18.70;;;;;;;;;;5031955;28;20052;-82
2022/12/19 06:31:15;;;;;;;35.55;16.27;;;;;;;;;;5032523;28;20014;-80
2022/12/19 06:33:41;;;;;;;43.15;17.67;;;;;;;;;;5032121;28;20496;-80
2022/12/19 06:36:10;;;;;;;40.38;17.15;;;;;;;;;;5029259;28;20029;-82
2022/12/19 06:38:36;;;;;;;38.95;16.45;;;;;;;;;;5030212;28;20030;-82
2022/12/19 06:43:47;;;;;;;42.22;17.63;;;;;;;;;;5031550;28;20045;-82
2022/12/19 06:46:13;;;;;;;41.78;17.13;;;;;;;;;;5033970;28;20056;-82
2022/12/19 06:48:39;;;;;;;46.63;19.80;;;;;;;;;;5013304;28;20029;-83
2022/12/19 06:51:06;;;;;;;48.38;20.00;;;;;;;;;;5012334;28;20076;-82
2022/12/19 06:53:32;;;;;;;40.42;18.15;;;;;;;;;;5011880;28;20092;-83
2022/12/19 06:55:58;;;;;;;43.08;18.05;;;;;;;;;;5010320;28;20040;-83
2022/12/19 06:58:25;;;;;;;43.08;17.70;;;;;;;;;;5027719;28;20030;-82
2022/12/19 07:00:51;;;;;;;46.40;18.65;;;;;;;;;;5023914;28;20058;-83
2022/12/19 07:03:20;;;;;;;45.42;19.45;;;;;;;;;;5001721;28;20054;-83
2022/12/19 07:05:46;;;;;;;42.42;17.65;;;;;;;;;;5031105;28;20114;-82
2022/12/19 07:08:12;;;;;;;40.80;17.33;;;;;;;;;;5034792;28;20026;-82
2022/12/19 07:10:38;;;;;;;37.97;15.85;;;;;;;;;;5037626;28;20036;-81
2022/12/19 07:13:05;;;;;;;43.28;17.90;;;;;;;;;;5036657;28;20034;-81
2022/12/19 07:15:32;;;;;;;41.85;19.33;;;;;;;;;;5036478;28;20094;-81
2022/12/19 07:18:06;;;;;;;41.22;17.50;;;;;;;;;;5014523;28;20034;-83
2022/12/19 07:23:18;;;;;;;47.95;18.75;;;;;;;;;;5025455;28;20061;-82
2022/12/19 07:25:44;;;;;;;42.78;17.60;;;;;;;;;;5006838;28;20038;-83
2022/12/19 07:28:23;;;;;;;40.95;17.05;;;;;;;;;;5008175;28;20133;-82
2022/12/19 07:30:52;;;;;;;37.05;16.35;;;;;;;;;;5018676;28;20030;-83
2022/12/19 07:33:19;;;;;;;38.83;17.25;;;;;;;;;;5026276;28;20021;-82
2022/12/19 07:35:45;;;;;;;33.55;15.18;;;;;;;;;;5022906;28;20049;-82
2022/12/19 07:38:11;;;;;;;33.25;15.15;;;;;;;;;;5025884;28;20072;-81
2022/12/19 07:40:37;;;;;;;33.28;15.43;;;;;;;;;;5022100;28;20468;-85
2022/12/19 07:43:04;;;;;;;32.65;14.05;;;;;;;;;;5009464;28;20447;-83
2022/12/19 07:45:31;;;;;;;30.60;14.23;;;;;;;;;;5012270;28;20333;-83
2022/12/19 07:48:01;;;;;;;30.60;14.45;;;;;;;;;;5021511;28;20101;-84
2022/12/19 07:50:27;;;;;;;29.35;13.13;;;;;;;;;;5024258;28;20449;-83
2022/12/19 07:52:53;;;;;;;33.35;15.85;;;;;;;;;;5020750;28;20412;-84
2022/12/19 07:55:19;;;;;;;37.47;16.75;;;;;;;;;;5012099;28;20082;-83
2022/12/19 07:57:45;;;;;;;32.33;14.95;;;;;;;;;;5020012;28;20037;-84
2022/12/19 08:00:11;;;;;;;43.10;17.00;;;;;;;;;;5021481;28;20440;-83
2022/12/19 08:02:46;;;;;;;37.30;15.88;;;;;;;;;;5005251;28;20404;-84
2022/12/19 08:05:12;;;;;;;32.70;14.35;;;;;;;;;;5031320;28;20068;-83
2022/12/19 08:07:38;;;;;;;33.60;15.48;;;;;;;;;;5003669;28;20038;-84
2022/12/19 08:10:05;;;;;;;26.63;13.32;;;;;;;;;;5021386;28;20599;-83
2022/12/19 08:12:34;;;;;;;30.00;13.15;;;;;;;;;;5022050;28;20481;-83
2022/12/19 08:15:00;;;;;;;24.38;12.15;;;;;;;;;;5003252;28;20034;-83
2022/12/19 08:17:27;;;;;;;25.63;12.45;;;;;;;;;;5033808;28;20033;-83
2022/12/19 08:19:56;;;;;;;22.60;11.32;;;;;;;;;;5008148;28;20026;-83
2022/12/19 08:22:22;;;;;;;26.20;11.15;;;;;;;;;;4997934;28;20033;-83
2022/12/19 08:24:49;;;;;;;25.33;11.93;;;;;;;;;;5029526;28;20029;-84
2022/12/19 08:27:15;;;;;;;25.58;12.85;;;;;;;;;;5023226;28;20068;-83
2022/12/19 08:29:42;;;;;;;34.63;14.95;;;;;;;;;;5016158;28;20048;-84
2022/12/19 08:32:08;;;;;;;31.55;15.75;;;;;;;;;;5010919;28;20089;-83
2022/12/19 08:34:35;;;;;;;37.30;15.77;;;;;;;;;;5018728;28;20034;-84
2022/12/19 08:37:01;;;;;;;30.92;15.30;;;;;;;;;;5024557;28;20115;-83
2022/12/19 08:39:27;;;;;;;34.55;16.15;;;;;;;;;;5033777;28;20052;-82
2022/12/19 08:41:53;;;;;;;34.42;15.48;;;;;;;;;;5037034;28;20018;-81
2022/12/19 08:44:20;;;;;;;27.90;13.15;;;;;;;;;;5036859;28;20057;-82
2022/12/19 08:46:46;;;;;;;31.55;14.50;;;;;;;;;;5033001;28;20034;-81
2022/12/19 08:49:12;;;;;;;27.15;13.35;;;;;;;;;;5019291;28;20081;-80
2022/12/19 08:51:38;;;;;;;26.55;12.82;;;;;;;;;;5036903;28;20207;-80
2022/12/19 08:54:04;;;;;;;20.85;10.85;;;;;;;;;;5034508;28;20014;-80
2022/12/19 08:56:30;;;;;;;20.52;10.85;;;;;;;;;;5036544;28;20029;-81
2022/12/19 08:58:56;;;;;;;17.75;9.82;;;;;;;;;;5037104;28;20029;-80
2022/12/19 09:01:24;;;;;;;19.20;10.18;;;;;;;;;;5036849;28;20005;-82
2022/12/19 09:03:51;;;;;;;22.63;11.23;;;;;;;;;;5036856;28;20033;-81
2022/12/19 09:06:18;;;;;;;20.27;10.45;;;;;;;;;;5036427;28;20062;-80
2022/12/19 09:08:44;;;;;;;15.85;9.20;;;;;;;;;;5036963;28;20014;-81
2022/12/19 09:11:12;;;;;;;20.05;10.45;;;;;;;;;;5043757;28;20032;-81
2022/12/19 09:13:38;;;;;;;27.50;13.38;;;;;;;;;;5028170;28;20026;-83
2022/12/19 09:16:07;;;;;;;35.22;13.95;;;;;;;;;;5027011;28;20487;-84
2022/12/19 09:18:34;;;;;;;25.83;11.95;;;;;;;;;;5023991;28;20034;-85
2022/12/19 09:21:00;;;;;;;20.98;11.65;;;;;;;;;;5041624;28;20034;-84
2022/12/19 09:23:27;;;;;;;20.15;10.02;;;;;;;;;;5034068;28;20033;-84
2022/12/19 09:25:53;;;;;;;20.83;11.10;;;;;;;;;;5025446;28;20033;-84
2022/12/19 09:28:20;;;;;;;21.85;11.70;;;;;;;;;;5030078;28;20018;-83
2022/12/19 09:30:58;;;;;;;20.00;10.88;;;;;;;;;;5039222;28;20024;-83
2022/12/19 09:33:25;;;;;;;22.77;11.35;;;;;;;;;;5051033;28;20018;-82
2022/12/19 09:35:51;;;;;;;19.60;10.45;;;;;;;;;;5035774;28;20025;-82
2022/12/19 09:38:18;;;;;;;20.17;9.65;;;;;;;;;;5027885;28;20112;-82
2022/12/19 09:41:01;;;;;;;15.45;9.00;;;;;;;;;;5025359;28;20068;-82
2022/12/19 09:43:49;;;;;;;18.15;9.50;;;;;;;;;;5025537;28;20037;-83
2022/12/19 09:46:17;;;;;;;15.10;8.52;;;;;;;;;;5027394;28;20102;-84
2022/12/19 09:48:45;;;;;;;16.70;8.52;;;;;;;;;;5043858;28;20045;-83
2022/12/19 09:51:16;;;;;;;13.60;7.25;;;;;;;;;;5008330;28;20033;-84
2022/12/19 09:53:48;;;;;;;11.23;7.33;;;;;;;;;;5028946;28;20022;-81
2022/12/19 09:56:15;;;;;;;10.75;6.20;;;;;;;;;;5033923;28;20265;-82
2022/12/19 09:58:55;;;;;;;10.55;5.75;;;;;;;;;;5015221;28;20042;-82
2022/12/19 10:01:31;;;;;;;15.60;7.57;;;;;;;;;;5013384;28;20093;-83
2022/12/19 10:04:09;;;;;;;20.92;10.32;;;;;;;;;;5006093;28;20098;-83
2022/12/19 10:06:43;;;;;;;24.10;10.98;;;;;;;;;;5010368;28;20022;-82
2022/12/19 10:09:14;;;;;;;25.15;12.00;;;;;;;;;;5025849;28;20034;-82
2022/12/19 10:11:40;;;;;;;20.05;11.13;;;;;;;;;;5037051;28;20030;-82
2022/12/19 10:14:06;;;;;;;22.67;11.68;;;;;;;;;;5046066;28;20059;-83
2022/12/19 10:16:33;;;;;;;23.77;12.77;;;;;;;;;;5026461;28;20029;-83
2022/12/19 10:19:07;;;;;;;24.08;13.30;;;;;;;;;;5027227;28;20026;-84
2022/12/19 10:21:44;;;;;;;21.65;12.23;;;;;;;;;;5018898;28;20101;-84
2022/12/19 10:24:25;;;;;;;20.00;11.75;;;;;;;;;;5030328;28;20026;-84
2022/12/19 10:26:58;;;;;;;24.15;13.38;;;;;;;;;;5028305;28;20064;-84
2022/12/19 10:29:27;;;;;;;21.15;11.88;;;;;;;;;;5026784;28;20033;-84
2022/12/19 10:32:07;;;;;;;22.27;12.90;;;;;;;;;;5027542;28;20056;-83
2022/12/19 10:34:35;;;;;;;22.40;12.35;;;;;;;;;;5009539;28;20058;-85
2022/12/19 10:37:08;;;;;;;21.85;11.75;;;;;;;;;;5025444;28;20033;-83
2022/12/19 10:39:47;;;;;;;20.00;11.93;;;;;;;;;;5055781;28;20115;-83
2022/12/19 10:42:26;;;;;;;24.02;12.95;;;;;;;;;;5042740;28;20025;-83
2022/12/19 10:44:54;;;;;;;23.83;13.57;;;;;;;;;;5052345;28;20030;-82
2022/12/19 10:47:24;;;;;;;24.70;13.27;;;;;;;;;;5038690;28;20014;-82
2022/12/19 10:49:50;;;;;;;22.08;12.30;;;;;;;;;;5039371;28;20026;-80
2022/12/19 10:52:39;;;;;;;21.58;12.88;;;;;;;;;;5038287;28;20033;-81
2022/12/19 10:55:20;;;;;;;26.15;13.88;;;;;;;;;;5037728;28;20053;-80
2022/12/19 10:57:46;;;;;;;24.85;13.50;;;;;;;;;;5039500;28;20049;-81
2022/12/19 11:00:16;;;;;;;23.67;12.63;;;;;;;;;;5037706;28;20025;-81
2022/12/19 11:02:42;;;;;;;23.38;12.85;;;;;;;;;;5037509;28;20030;-82
2022/12/19 11:05:20;;;;;;;27.45;14.57;;;;;;;;;;5039701;28;20030;-82
2022/12/19 11:07:59;;;;;;;29.40;14.35;;;;;;;;;;5034380;28;20029;-83
2022/12/19 11:10:48;;;;;;;26.70;13.02;;;;;;;;;;5033644;28;20042;-83
2022/12/19 11:13:25;;;;;;;25.95;13.23;;;;;;;;;;5016525;28;20132;-83
2022/12/19 11:15:56;;;;;;;19.35;11.95;;;;;;;;;;5031707;28;20053;-83
2022/12/19 11:18:23;;;;;;;21.80;11.15;;;;;;;;;;5039819;28;20046;-83
2022/12/19 11:21:08;;;;;;;21.15;12.18;;;;;;;;;;5029715;28;20033;-83
2022/12/19 11:23:34;;;;;;;21.48;10.25;;;;;;;;;;5030207;28;20030;-83
2022/12/19 11:26:07;;;;;;;18.35;9.57;;;;;;;;;;5030655;28;20026;-82
2022/12/19 11:28:35;;;;;;;18.65;10.20;;;;;;;;;;5024878;28;20021;-82
2022/12/19 11:31:20;;;;;;;18.65;10.27;;;;;;;;;;5028170;28;20055;-83
2022/12/19 11:33:52;;;;;;;17.80;9.65;;;;;;;;;;5037584;28;20026;-84
2022/12/19 11:36:30;;;;;;;21.17;10.60;;;;;;;;;;5032265;28;20068;-82
2022/12/19 11:38:56;;;;;;;16.20;9.30;;;;;;;;;;5026018;28;20365;-81
2022/12/19 11:41:30;;;;;;;18.67;11.15;;;;;;;;;;5031875;28;20014;-82
2022/12/19 11:44:00;;;;;;;17.75;10.23;;;;;;;;;;5024156;28;20137;-81
2022/12/19 11:46:36;;;;;;;16.02;9.38;;;;;;;;;;5022371;28;20018;-82
2022/12/19 11:49:10;;;;;;;16.30;8.80;;;;;;;;;;5023505;28;20068;-84
2022/12/19 11:51:52;;;;;;;15.55;8.82;;;;;;;;;;5022161;28;20057;-83
2022/12/19 11:54:26;;;;;;;19.88;11.05;;;;;;;;;;5022012;28;20022;-82
2022/12/19 11:56:53;;;;;;;25.48;12.55;;;;;;;;;;5021982;28;20484;-82
2022/12/19 11:59:20;;;;;;;19.45;11.15;;;;;;;;;;5023599;28;20454;-82
2022/12/19 12:02:05;;;;;;;17.17;10.07;;;;;;;;;;5014658;28;20171;-84
2022/12/19 12:04:46;;;;;;;23.20;11.93;;;;;;;;;;5022503;28;20179;-84
2022/12/19 12:07:13;;;;;;;19.95;11.68;;;;;;;;;;5039377;28;20091;-81
2022/12/19 12:09:39;;;;;;;21.25;12.95;;;;;;;;;;5023484;28;20037;-84
2022/12/19 12:12:06;;;;;;;29.45;16.63;;;;;;;;;;5023883;28;20052;-82
2022/12/19 12:14:41;;;;;;;28.10;16.95;;;;;;;;;;5034027;28;20022;-84
2022/12/19 12:17:26;;;;;;;27.85;15.50;;;;;;;;;;5009423;28;20021;-81
2022/12/19 12:20:10;;;;;;;26.35;15.10;;;;;;;;;;5020272;28;20033;-81
2022/12/19 12:22:46;;;;;;;26.83;15.45;;;;;;;;;;5009958;28;20113;-84
2022/12/19 12:25:16;;;;;;;24.17;14.10;;;;;;;;;;5021514;28;20042;-82
2022/12/19 12:27:55;;;;;;;28.83;15.02;;;;;;;;;;5035168;28;20093;-83
2022/12/19 12:30:22;;;;;;;23.80;13.45;;;;;;;;;;5035921;28;20029;-82
2022/12/19 12:33:06;;;;;;;23.40;12.48;;;;;;;;;;5051617;28;20026;-82
2022/12/19 12:35:36;;;;;;;19.33;11.57;;;;;;;;;;5046799;28;20032;-83
2022/12/19 12:38:21;;;;;;;21.38;11.30;;;;;;;;;;5034739;28;20081;-82
2022/12/19 12:40:56;;;;;;;15.95;9.40;;;;;;;;;;5017987;28;20014;-81
2022/12/19 12:43:41;;;;;;;19.60;12.18;;;;;;;;;;5042598;28;20017;-82
2022/12/19 12:46:11;;;;;;;23.55;12.70;;;;;;;;;;5036955;28;20129;-81
2022/12/19 12:48:42;;;;;;;21.67;12.55;;;;;;;;;;5044572;28;20022;-81
2022/12/19 12:51:09;;;;;;;23.45;13.60;;;;;;;;;;4999857;28;20086;-82
2022/12/19 12:53:37;;;;;;;21.65;13.70;;;;;;;;;;4987360;28;20022;-81
2022/12/19 12:56:07;;;;;;;25.95;14.27;;;;;;;;;;5015723;28;20362;-82
2022/12/19 12:58:41;;;;;;;28.05;14.68;;;;;;;;;;5019821;28;20030;-81
2022/12/19 13:01:14;;;;;;;27.50;15.10;;;;;;;;;;5019967;28;20632;-82
2022/12/19 13:03:41;;;;;;;26.77;14.88;;;;;;;;;;5019955;28;20018;-82
2022/12/19 13:06:21;;;;;;;27.85;15.75;;;;;;;;;;5018081;28;20038;-82
2022/12/19 13:08:49;;;;;;;33.95;17.33;;;;;;;;;;5003676;28;20026;-83
2022/12/19 13:14:31;;;;;;;32.88;15.70;;;;;;;;;;5018856;28;20111;-82
2022/12/19 13:16:57;;;;;;;29.85;14.70;;;;;;;;;;5023836;28;20022;-82
2022/12/19 13:19:25;;;;;;;25.17;14.27;;;;;;;;;;5018394;28;20109;-83
2022/12/19 13:22:03;;;;;;;34.85;16.00;;;;;;;;;;5018709;28;20033;-82
2022/12/19 13:24:39;;;;;;;30.83;16.52;;;;;;;;;;5033830;28;20029;-82
2022/12/19 13:27:25;;;;;;;34.35;15.52;;;;;;;;;;5018868;28;20026;-83
2022/12/19 13:29:59;;;;;;;32.53;17.73;;;;;;;;;;5018011;28;20068;-83
2022/12/19 13:32:33;;;;;;;29.10;15.65;;;;;;;;;;5020791;28;20036;-84
2022/12/19 13:35:00;;;;;;;28.13;14.43;;;;;;;;;;5020490;28;20026;-84
2022/12/19 13:37:26;;;;;;;28.17;15.73;;;;;;;;;;5018819;28;20384;-84
2022/12/19 13:39:52;;;;;;;29.45;16.35;;;;;;;;;;5019626;28;20369;-84
2022/12/19 13:45:09;;;;;;;27.63;15.30;;;;;;;;;;5021269;28;20036;-82
2022/12/19 13:47:37;;;;;;;25.95;15.40;;;;;;;;;;5020293;28;20022;-83
2022/12/19 13:50:05;;;;;;;29.60;15.90;;;;;;;;;;5022051;28;20120;-83
2022/12/19 13:52:31;;;;;;;29.60;15.05;;;;;;;;;;5024457;28;20022;-84
2022/12/19 13:54:58;;;;;;;29.55;15.68;;;;;;;;;;5023828;28;20166;-83
2022/12/19 13:57:28;;;;;;;28.25;15.52;;;;;;;;;;5039410;28;20044;-82
2022/12/19 13:59:56;;;;;;;27.17;15.32;;;;;;;;;;5039045;28;20036;-83
2022/12/19 14:02:26;;;;;;;27.95;15.40;;;;;;;;;;5039361;28;20026;-84
2022/12/19 14:04:52;;;;;;;29.88;15.05;;;;;;;;;;5039422;28;20017;-83
2022/12/19 14:07:28;;;;;;;30.25;16.38;;;;;;;;;;5041983;28;20025;-83
2022/12/19 14:10:20;;;;;;;28.05;15.57;;;;;;;;;;5043291;28;20305;-85
2022/12/19 14:15:37;;;;;;;29.65;15.18;;;;;;;;;;5040907;28;20041;-85
2022/12/19 14:18:15;;;;;;;29.55;14.77;;;;;;;;;;5030376;28;20018;-84
2022/12/19 14:20:42;;;;;;;27.65;15.30;;;;;;;;;;5022413;28;20021;-84
2022/12/19 14:23:10;;;;;;;29.90;16.63;;;;;;;;;;5032032;28;20042;-85
2022/12/19 14:25:45;;;;;;;35.47;18.45;;;;;;;;;;5032250;28;20018;-84
2022/12/19 14:28:15;;;;;;;34.78;18.30;;;;;;;;;;5024028;28;20065;-86
2022/12/19 14:31:17;;;;;;;27.42;15.90;;;;;;;;;;5014744;28;20026;-85
2022/12/19 14:33:57;;;;;;;37.72;18.73;;;;;;;;;;5002021;28;20042;-85
2022/12/19 14:36:25;;;;;;;32.05;17.88;;;;;;;;;;5025498;28;20022;-84
2022/12/19 14:38:53;;;;;;;30.20;17.00;;;;;;;;;;5043098;28;20018;-86
2022/12/19 14:44:18;;;;;;;42.95;25.98;;;;;;;;;;5032183;28;20116;-86
2022/12/19 14:46:58;;;;;;;37.25;23.15;;;;;;;;;;5039355;28;20022;-86
2022/12/19 14:49:26;;;;;;;38.88;23.35;;;;;;;;;;5018623;28;20069;-85
2022/12/19 14:51:53;;;;;;;36.45;21.13;;;;;;;;;;5021640;28;20081;-85
2022/12/19 14:54:20;;;;;;;34.83;19.67;;;;;;;;;;5042307;28;20123;-85